createdAt,value
2022-10-13T00:01:15.250Z,7.97
2022-10-13T00:03:17.840Z,7.50
2022-10-13T00:05:20.283Z,7.50
2022-10-13T00:07:22.198Z,7.93
2022-10-13T00:09:24.142Z,7.20
2022-10-13T00:11:28.755Z,7.10
2022-10-13T00:13:30.774Z,7.80
2022-10-13T00:15:32.906Z,6.20
2022-10-13T00:17:36.467Z,6.90
2022-10-13T00:19:38.488Z,6.93
2022-10-13T00:21:41.320Z,6.70
2022-10-13T00:23:43.521Z,7.17
2022-10-13T00:25:47.623Z,6.60
2022-10-13T00:27:49.704Z,7.60
2022-10-13T00:29:51.706Z,7.03
2022-10-13T00:31:53.695Z,7.63
2022-10-13T00:33:56.189Z,7.77
2022-10-13T00:35:58.887Z,6.70
2022-10-13T00:38:00.860Z,7.80
2022-10-13T00:40:07.562Z,7.27
2022-10-13T00:42:13.493Z,6.97
2022-10-13T00:44:52.963Z,7.67
2022-10-13T00:46:55.061Z,6.70
2022-10-13T00:48:59.527Z,8.10
2022-10-13T00:51:01.536Z,7.83
2022-10-13T00:53:03.742Z,7.60
2022-10-13T00:55:06.626Z,7.57
2022-10-13T00:57:09.078Z,7.80
2022-10-13T00:59:18.879Z,7.40
2022-10-13T01:01:20.960Z,8.27
2022-10-13T01:03:23.530Z,7.33
2022-10-13T01:05:26.051Z,7.53
2022-10-13T01:07:30.906Z,7.77
2022-10-13T01:09:37.810Z,7.13
2022-10-13T01:12:03.145Z,7.90
2022-10-13T01:14:27.296Z,7.33
2022-10-13T01:16:54.152Z,7.77
2022-10-13T01:19:01.923Z,8.33
2022-10-13T01:21:40.340Z,8.20
2022-10-13T01:23:44.968Z,8.27
2022-10-13T01:26:06.668Z,7.53
2022-10-13T01:28:35.800Z,7.73
2022-10-13T01:30:43.688Z,8.80
2022-10-13T01:33:00.858Z,7.07
2022-10-13T01:35:37.541Z,7.77
2022-10-13T01:37:53.513Z,7.67
2022-10-13T01:40:13.878Z,8.10
2022-10-13T01:42:28.860Z,7.87
2022-10-13T01:44:36.502Z,9.47
2022-10-13T01:46:39.072Z,8.70
2022-10-13T01:48:42.851Z,8.90
2022-10-13T01:50:45.710Z,9.33
2022-10-13T01:52:48.294Z,8.37
2022-10-13T01:54:54.338Z,8.70
2022-10-13T01:56:56.778Z,8.83
2022-10-13T01:59:01.688Z,8.40
2022-10-13T02:01:28.703Z,8.70
2022-10-13T02:03:41.827Z,9.33
2022-10-13T02:06:30.470Z,10.53
2022-10-13T02:08:50.842Z,10.53
2022-10-13T02:10:59.253Z,12.00
2022-10-13T02:13:02.533Z,10.67
2022-10-13T02:15:05.763Z,10.90
2022-10-13T02:17:11.646Z,10.87
2022-10-13T02:19:17.567Z,10.17
2022-10-13T02:21:19.505Z,10.90
2022-10-13T02:23:21.755Z,9.90
2022-10-13T02:25:24.238Z,10.70
2022-10-13T02:27:27.225Z,10.53
2022-10-13T02:29:29.138Z,11.40
2022-10-13T02:31:31.033Z,9.93
2022-10-13T02:33:33.594Z,11.10
2022-10-13T02:35:35.620Z,11.13
2022-10-13T02:37:37.565Z,10.27
2022-10-13T02:39:40.033Z,10.00
2022-10-13T02:41:46.439Z,9.60
2022-10-13T02:43:48.374Z,8.63
2022-10-13T02:45:50.297Z,10.00
2022-10-13T02:47:52.327Z,9.60
2022-10-13T02:49:54.290Z,10.67
2022-10-13T02:51:56.204Z,9.27
2022-10-13T02:53:58.264Z,9.40
2022-10-13T02:56:00.193Z,9.90
2022-10-13T02:58:03.008Z,10.47
2022-10-13T03:00:07.192Z,9.70
2022-10-13T03:02:09.126Z,9.37
2022-10-13T03:04:11.732Z,10.47
2022-10-13T03:06:13.692Z,8.93
2022-10-13T03:08:15.672Z,9.17
2022-10-13T03:10:18.454Z,8.93
2022-10-13T03:12:21.675Z,10.00
2022-10-13T03:14:23.868Z,10.40
2022-10-13T03:16:25.933Z,9.57
2022-10-13T03:18:27.922Z,9.03
2022-10-13T03:20:29.950Z,8.87
2022-10-13T03:22:32.730Z,7.90
2022-10-13T03:24:34.726Z,8.00
2022-10-13T03:26:36.738Z,8.43
2022-10-13T03:28:38.769Z,8.03
2022-10-13T03:30:40.691Z,9.10
2022-10-13T03:32:42.687Z,8.40
2022-10-13T03:34:44.623Z,9.17
2022-10-13T03:36:46.631Z,8.70
2022-10-13T03:38:48.637Z,8.50
2022-10-13T03:40:50.532Z,9.10
2022-10-13T03:42:52.457Z,8.77
2022-10-13T03:44:56.505Z,9.50
2022-10-13T03:46:58.642Z,9.87
2022-10-13T03:49:00.576Z,9.00
2022-10-13T03:51:09.938Z,9.00
2022-10-13T03:53:14.595Z,8.80
2022-10-13T03:55:17.430Z,9.60
2022-10-13T03:57:19.295Z,10.67
2022-10-13T03:59:21.262Z,11.10
2022-10-13T04:01:25.945Z,9.93
2022-10-13T04:03:27.932Z,9.30
2022-10-13T04:05:29.860Z,10.27
2022-10-13T04:07:31.959Z,10.30
2022-10-13T04:09:33.986Z,9.53
2022-10-13T04:11:36.015Z,9.60
2022-10-13T04:13:38.023Z,9.60
2022-10-13T04:15:40.490Z,10.17
2022-10-13T04:17:42.512Z,10.20
2022-10-13T04:19:44.529Z,10.30
2022-10-13T04:21:46.559Z,9.80
2022-10-13T04:23:48.633Z,9.77
2022-10-13T04:25:50.759Z,9.90
2022-10-13T04:27:52.857Z,9.70
2022-10-13T04:29:55.155Z,9.70
2022-10-13T04:31:59.637Z,10.50
2022-10-13T04:34:01.683Z,10.07
2022-10-13T04:36:08.279Z,11.27
2022-10-13T04:38:10.274Z,10.30
2022-10-13T04:40:12.808Z,11.17
2022-10-13T04:42:14.856Z,10.00
2022-10-13T04:44:16.858Z,9.90
2022-10-13T04:46:23.141Z,10.23
2022-10-13T04:48:26.186Z,10.80
2022-10-13T04:50:28.533Z,9.73
2022-10-13T04:52:35.162Z,10.50
2022-10-13T04:54:37.242Z,11.63
2022-10-13T04:56:39.299Z,11.80
2022-10-13T04:58:42.521Z,10.37
2022-10-13T05:00:46.705Z,11.27
2022-10-13T05:02:48.798Z,12.43
2022-10-13T05:04:50.708Z,12.03
2022-10-13T05:07:16.570Z,12.10
2022-10-13T05:09:16.918Z,12.53
2022-10-13T05:11:20.610Z,13.13
2022-10-13T05:13:23.276Z,12.20
2022-10-13T05:15:25.322Z,12.00
2022-10-13T05:17:34.999Z,13.60
2022-10-13T05:19:41.208Z,12.80
2022-10-13T05:21:43.235Z,14.57
2022-10-13T05:23:45.885Z,15.23
2022-10-13T05:25:47.863Z,13.87
2022-10-13T05:27:53.286Z,16.03
2022-10-13T05:29:55.274Z,14.97
2022-10-13T05:31:57.207Z,16.20
2022-10-13T05:33:59.435Z,16.20
2022-10-13T05:36:09.415Z,14.90
2022-10-13T05:38:12.480Z,16.23
2022-10-13T05:40:14.465Z,15.17
2022-10-13T05:42:16.531Z,16.27
2022-10-13T05:44:19.224Z,16.00
2022-10-13T05:46:30.483Z,16.63
2022-10-13T05:48:32.561Z,15.93
2022-10-13T05:50:34.633Z,15.80
2022-10-13T05:52:37.825Z,16.07
2022-10-13T05:54:43.184Z,14.60
2022-10-13T05:56:50.186Z,16.10
2022-10-13T05:58:55.680Z,17.13
2022-10-13T06:00:57.615Z,17.20
2022-10-13T06:03:07.983Z,17.77
2022-10-13T06:05:15.036Z,17.67
2022-10-13T06:07:17.303Z,17.63
2022-10-13T06:09:19.375Z,19.10
2022-10-13T06:11:41.394Z,16.80
2022-10-13T06:14:03.432Z,16.83
2022-10-13T06:16:05.698Z,18.93
2022-10-13T06:18:10.877Z,17.00
2022-10-13T06:20:12.878Z,17.20
2022-10-13T06:22:15.240Z,17.63
2022-10-13T06:24:17.666Z,19.00
2022-10-13T06:26:19.976Z,18.50
2022-10-13T06:28:22.161Z,18.43
2022-10-13T06:30:24.174Z,18.10
2022-10-13T06:32:26.194Z,17.47
2022-10-13T06:34:28.118Z,17.60
2022-10-13T06:36:30.147Z,17.40
2022-10-13T06:38:32.640Z,19.67
2022-10-13T06:40:34.560Z,19.13
2022-10-13T06:42:36.538Z,18.50
2022-10-13T06:44:44.532Z,17.37
2022-10-13T06:46:46.529Z,18.57
2022-10-13T06:48:51.734Z,17.57
2022-10-13T06:50:55.372Z,18.47
2022-10-13T06:52:57.282Z,18.23
2022-10-13T06:54:59.211Z,17.77
2022-10-13T06:57:06.221Z,17.07
2022-10-13T06:59:08.218Z,17.73
2022-10-13T07:01:13.468Z,18.33
2022-10-13T07:03:15.342Z,16.57
2022-10-13T07:05:17.381Z,18.47
2022-10-13T07:07:19.458Z,17.27
2022-10-13T07:09:22.824Z,17.20
2022-10-13T07:11:24.771Z,17.20
2022-10-13T07:13:33.634Z,16.47
2022-10-13T07:15:39.971Z,15.23
2022-10-13T07:17:41.925Z,15.40
2022-10-13T07:19:43.891Z,16.23
2022-10-13T07:21:45.944Z,15.93
2022-10-13T07:23:47.930Z,15.83
2022-10-13T07:25:49.986Z,16.50
2022-10-13T07:27:51.889Z,14.10
2022-10-13T07:29:53.951Z,15.40
2022-10-13T07:31:55.919Z,15.93
2022-10-13T07:33:59.333Z,16.73
2022-10-13T07:36:03.798Z,15.33
2022-10-13T07:38:06.831Z,14.57
2022-10-13T07:40:09.399Z,15.87
2022-10-13T07:42:11.385Z,15.27
2022-10-13T07:44:13.411Z,15.47
2022-10-13T07:46:16.844Z,16.03
2022-10-13T07:48:18.853Z,16.40
2022-10-13T07:50:20.894Z,15.50
2022-10-13T07:52:23.274Z,16.00
2022-10-13T07:54:27.475Z,15.30
2022-10-13T07:56:29.609Z,16.13
2022-10-13T07:58:31.922Z,15.60
2022-10-13T08:00:33.890Z,16.80
2022-10-13T08:02:35.879Z,14.67
2022-10-13T08:04:39.227Z,15.27
2022-10-13T08:06:42.572Z,15.33
2022-10-13T08:08:44.452Z,15.83
2022-10-13T08:10:48.017Z,16.37
2022-10-13T08:12:50.035Z,16.73
2022-10-13T08:14:52.141Z,15.83
2022-10-13T08:16:54.262Z,14.77
2022-10-13T08:18:59.638Z,15.30
2022-10-13T08:23:24.631Z,15.47
2022-10-13T08:25:26.608Z,15.30
2022-10-13T08:27:47.612Z,15.67
2022-10-13T08:29:51.203Z,16.43
2022-10-13T08:31:53.846Z,15.33
2022-10-13T08:33:56.061Z,15.50
2022-10-13T08:35:58.025Z,15.17
2022-10-13T08:38:01.619Z,14.97
2022-10-13T08:40:04.255Z,14.60
2022-10-13T08:42:19.089Z,14.73
2022-10-13T08:47:08.395Z,15.13
2022-10-13T08:49:11.131Z,15.10
2022-10-13T08:51:14.725Z,13.93
2022-10-13T08:53:24.226Z,14.73
2022-10-13T08:55:36.406Z,14.57
2022-10-13T08:57:38.440Z,14.47
2022-10-13T08:59:40.515Z,15.80
2022-10-13T09:01:43.230Z,16.03
2022-10-13T09:03:56.022Z,14.37
2022-10-13T09:06:11.780Z,15.10
2022-10-13T09:08:20.256Z,14.90
2022-10-13T09:10:22.284Z,14.07
2022-10-13T09:12:25.134Z,14.50
2022-10-13T09:14:32.704Z,14.00
2022-10-13T09:16:34.862Z,15.30
2022-10-13T09:18:39.255Z,15.73
2022-10-13T09:20:50.040Z,17.23
2022-10-13T09:23:08.085Z,16.57
2022-10-13T09:25:21.298Z,16.10
2022-10-13T09:27:23.343Z,16.93
2022-10-13T09:29:26.447Z,15.53
2022-10-13T09:31:28.988Z,16.07
2022-10-13T09:33:35.316Z,15.93
2022-10-13T09:35:45.210Z,15.23
2022-10-13T09:38:02.012Z,15.20
2022-10-13T09:40:20.649Z,16.07
2022-10-13T09:42:27.409Z,15.90
2022-10-13T09:44:32.402Z,14.93
2022-10-13T09:46:37.233Z,15.37
2022-10-13T09:48:42.331Z,13.73
2022-10-13T09:50:49.885Z,14.90
2022-10-13T09:52:52.231Z,14.63
2022-10-13T09:55:01.025Z,14.23
2022-10-13T09:57:07.761Z,14.17
2022-10-13T09:59:31.223Z,14.13
2022-10-13T10:01:35.535Z,15.03
2022-10-13T10:03:38.646Z,15.60
2022-10-13T10:05:50.826Z,13.63
2022-10-13T10:07:53.265Z,14.37
2022-10-13T10:09:57.975Z,13.90
2022-10-13T10:12:02.260Z,14.47
2022-10-13T10:14:26.698Z,13.50
2022-10-13T10:16:39.903Z,15.13
2022-10-13T10:18:51.904Z,16.10
2022-10-13T10:21:03.280Z,14.37
2022-10-13T10:23:10.855Z,13.87
2022-10-13T10:25:49.663Z,14.27
2022-10-13T10:28:09.335Z,15.10
2022-10-13T10:30:16.835Z,16.00
2022-10-13T10:32:51.126Z,16.23
2022-10-13T10:35:04.774Z,15.50
2022-10-13T10:37:44.677Z,15.07
2022-10-13T10:40:03.554Z,14.60
2022-10-13T10:42:30.671Z,16.20
2022-10-13T10:44:37.180Z,14.27
2022-10-13T10:46:48.722Z,14.70
2022-10-13T10:48:54.068Z,13.20
2022-10-13T10:50:56.614Z,11.07
2022-10-13T10:53:07.119Z,11.03
2022-10-13T10:55:46.673Z,10.47
2022-10-13T10:58:25.987Z,10.43
2022-10-13T11:00:31.152Z,10.57
2022-10-13T11:02:51.783Z,9.80
2022-10-13T11:04:54.473Z,10.50
2022-10-13T11:06:56.928Z,10.20
2022-10-13T11:08:58.965Z,10.50
2022-10-13T11:11:24.729Z,11.40
2022-10-13T11:13:29.123Z,9.60
2022-10-13T11:15:45.520Z,9.07
2022-10-13T11:17:47.494Z,9.90
2022-10-13T11:19:49.777Z,9.03
2022-10-13T11:22:00.557Z,9.27
2022-10-13T11:24:47.991Z,9.20
2022-10-13T11:26:51.407Z,9.37
2022-10-13T11:28:53.769Z,8.53
2022-10-13T11:30:57.727Z,8.40
2022-10-13T11:32:59.705Z,9.00
2022-10-13T11:35:23.207Z,8.60
2022-10-13T11:37:32.142Z,9.23
2022-10-13T11:39:59.358Z,9.77
2022-10-13T11:42:21.049Z,8.87
2022-10-13T11:44:56.170Z,9.33
2022-10-13T11:47:04.304Z,8.87
2022-10-13T11:49:28.638Z,10.03
2022-10-13T11:51:45.956Z,10.97
2022-10-13T11:53:55.715Z,10.87
2022-10-13T11:56:01.373Z,9.10
2022-10-13T11:58:16.484Z,8.53
2022-10-13T12:00:19.400Z,9.33
2022-10-13T12:02:26.888Z,8.50
2022-10-13T12:04:29.082Z,8.03
2022-10-13T12:06:33.639Z,7.20
2022-10-13T12:08:36.718Z,7.40
2022-10-13T12:10:39.318Z,6.90
2022-10-13T12:12:49.124Z,8.27
2022-10-13T12:14:54.104Z,8.80
2022-10-13T12:17:00.067Z,8.80
2022-10-13T12:19:16.229Z,7.07
2022-10-13T12:21:22.854Z,7.03
2022-10-13T12:23:26.378Z,7.30
2022-10-13T12:25:29.987Z,7.07
2022-10-13T12:27:49.272Z,7.00
2022-10-13T12:29:51.319Z,6.93
2022-10-13T12:31:54.029Z,7.80
2022-10-13T12:34:00.527Z,7.37
2022-10-13T12:36:13.820Z,8.40
2022-10-13T12:38:20.091Z,7.93
2022-10-13T12:40:22.302Z,7.50
2022-10-13T12:42:30.397Z,8.83
2022-10-13T12:44:32.526Z,7.90
2022-10-13T12:46:42.874Z,8.77
2022-10-13T12:48:45.266Z,9.20
2022-10-13T12:50:47.247Z,9.17
2022-10-13T12:52:51.241Z,8.00
2022-10-13T12:54:57.820Z,9.07
2022-10-13T12:57:16.793Z,7.00
2022-10-13T12:59:20.877Z,7.43
2022-10-13T13:01:32.400Z,7.73
2022-10-13T13:03:37.157Z,9.17
2022-10-13T13:05:49.245Z,7.80
2022-10-13T13:07:53.879Z,7.37
2022-10-13T13:10:13.268Z,8.00
2022-10-13T13:12:23.741Z,7.60
2022-10-13T13:14:38.039Z,9.07
2022-10-13T13:16:39.950Z,8.20
2022-10-13T13:18:44.239Z,7.10
2022-10-13T13:20:46.227Z,9.00
2022-10-13T13:22:48.411Z,10.77
2022-10-13T13:24:51.551Z,11.57
2022-10-13T13:26:53.612Z,25.77
2022-10-13T13:28:56.457Z,13.47
2022-10-13T13:30:59.141Z,30.60
2022-10-13T13:33:01.203Z,10.33
2022-10-13T13:35:04.283Z,6.93
2022-10-13T13:37:06.572Z,6.70
2022-10-13T13:39:16.312Z,6.30
2022-10-13T13:41:18.718Z,6.50
2022-10-13T13:43:20.637Z,5.93
2022-10-13T13:45:24.941Z,7.40
2022-10-13T13:47:28.956Z,5.70
2022-10-13T13:49:31.132Z,6.73
2022-10-13T13:51:33.368Z,6.00
2022-10-13T13:53:35.368Z,6.40
2022-10-13T13:55:38.007Z,7.70
2022-10-13T13:57:40.497Z,6.30
2022-10-13T13:59:42.935Z,6.87
2022-10-13T14:01:44.959Z,6.00
2022-10-13T14:03:47.224Z,5.47
2022-10-13T14:05:50.551Z,5.33
2022-10-13T14:07:56.754Z,5.77
2022-10-13T14:10:01.833Z,6.00
2022-10-13T14:12:05.038Z,5.03
2022-10-13T14:14:06.971Z,5.37
2022-10-13T14:16:17.017Z,5.37
2022-10-13T14:18:19.263Z,4.97
2022-10-13T14:20:21.986Z,5.33
2022-10-13T14:22:24.212Z,6.10
2022-10-13T14:24:26.470Z,6.00
2022-10-13T14:26:28.508Z,6.90
2022-10-13T14:28:30.586Z,7.10
2022-10-13T14:30:33.657Z,5.80
2022-10-13T14:32:38.807Z,5.40
2022-10-13T14:34:40.803Z,6.10
2022-10-13T14:36:42.837Z,5.87
2022-10-13T14:38:44.775Z,5.73
2022-10-13T14:40:46.750Z,7.17
2022-10-13T14:42:48.738Z,19.13
2022-10-13T14:44:51.587Z,8.60
2022-10-13T14:46:53.560Z,7.00
2022-10-13T14:48:57.121Z,7.63
2022-10-13T14:50:59.135Z,10.70
2022-10-13T14:53:01.295Z,8.60
2022-10-13T14:55:04.083Z,8.30
2022-10-13T14:57:08.089Z,7.00
2022-10-13T14:59:11.240Z,5.97
2022-10-13T15:01:13.269Z,6.47
2022-10-13T15:03:15.270Z,4.83
2022-10-13T15:05:18.414Z,5.00
2022-10-13T15:07:20.620Z,5.50
2022-10-13T15:09:29.086Z,5.90
2022-10-13T15:11:40.870Z,4.70
2022-10-13T15:13:42.888Z,5.50
2022-10-13T15:15:47.997Z,4.90
2022-10-13T15:17:49.955Z,5.80
2022-10-13T15:19:51.940Z,4.70
2022-10-13T15:21:53.973Z,5.23
2022-10-13T15:23:56.623Z,6.13
2022-10-13T15:26:00.403Z,9.70
2022-10-13T15:28:02.380Z,10.93
2022-10-13T15:30:04.769Z,16.50
2022-10-13T15:32:09.353Z,13.67
2022-10-13T15:34:11.315Z,14.23
2022-10-13T15:36:13.699Z,13.60
2022-10-13T15:38:16.363Z,16.50
2022-10-13T15:40:18.304Z,15.50
2022-10-13T15:42:20.499Z,16.67
2022-10-13T15:44:26.305Z,12.13
2022-10-13T15:46:29.809Z,10.47
2022-10-13T15:48:32.440Z,8.70
2022-10-13T15:50:34.668Z,8.93
2022-10-13T15:52:39.042Z,8.50
2022-10-13T15:54:41.075Z,9.00
2022-10-13T15:56:43.528Z,11.67
2022-10-13T15:58:45.672Z,10.23
2022-10-13T16:00:47.652Z,9.13
2022-10-13T16:02:51.493Z,7.90
2022-10-13T16:04:53.680Z,7.57
2022-10-13T16:06:55.710Z,7.93
2022-10-13T16:08:57.733Z,6.30
2022-10-13T16:10:59.648Z,7.30
2022-10-13T16:13:01.612Z,7.00
2022-10-13T16:15:03.894Z,6.43
2022-10-13T16:17:05.884Z,6.30
2022-10-13T16:19:07.818Z,6.30
2022-10-13T16:21:19.231Z,6.53
2022-10-13T16:23:21.317Z,7.60
2022-10-13T16:25:23.409Z,6.47
2022-10-13T16:27:25.473Z,6.17
2022-10-13T16:29:27.657Z,6.30
2022-10-13T16:31:29.723Z,7.67
2022-10-13T16:33:35.050Z,6.93
2022-10-13T16:35:36.990Z,6.50
2022-10-13T16:37:38.993Z,6.67
2022-10-13T16:39:43.774Z,7.20
2022-10-13T16:41:47.699Z,6.97
2022-10-13T16:43:50.913Z,6.87
2022-10-13T16:46:00.091Z,6.80
2022-10-13T16:48:02.483Z,8.40
2022-10-13T16:50:09.408Z,7.03
2022-10-13T16:52:11.347Z,7.70
2022-10-13T16:54:13.395Z,7.30
2022-10-13T16:56:15.795Z,8.37
2022-10-13T16:58:17.707Z,7.40
2022-10-13T17:00:19.900Z,8.00
2022-10-13T17:02:22.065Z,8.17
2022-10-13T17:04:24.383Z,7.67
2022-10-13T17:06:28.591Z,8.00
2022-10-13T17:08:31.367Z,8.30
2022-10-13T17:10:34.586Z,9.30
2022-10-13T17:12:36.869Z,9.40
2022-10-13T17:14:39.242Z,8.77
2022-10-13T17:16:41.262Z,9.90
2022-10-13T17:18:43.528Z,9.70
2022-10-13T17:21:02.823Z,9.80
2022-10-13T17:23:04.745Z,10.10
2022-10-13T17:25:07.108Z,9.90
2022-10-13T17:27:09.046Z,9.40
2022-10-13T17:29:12.674Z,9.80
2022-10-13T17:31:17.165Z,10.27
2022-10-13T17:33:19.053Z,10.00
2022-10-13T17:35:21.154Z,8.57
2022-10-13T17:37:24.040Z,9.27
2022-10-13T17:39:26.235Z,8.90
2022-10-13T17:41:28.274Z,9.30
2022-10-13T17:43:30.930Z,8.23
2022-10-13T17:45:33.111Z,10.60
2022-10-13T17:47:35.139Z,10.90
2022-10-13T17:49:37.283Z,10.27
2022-10-13T17:51:43.341Z,10.80
2022-10-13T17:53:45.510Z,11.10
2022-10-13T17:55:47.568Z,10.90
2022-10-13T17:57:49.725Z,13.23
2022-10-13T17:59:52.868Z,13.97
2022-10-13T18:01:54.925Z,15.30
2022-10-13T18:03:58.837Z,14.10
2022-10-13T18:06:01.560Z,13.97
2022-10-13T18:08:03.578Z,13.27
2022-10-13T18:10:06.289Z,14.07
2022-10-13T18:12:08.257Z,12.53
2022-10-13T18:14:10.238Z,11.57
2022-10-13T18:16:22.823Z,12.60
2022-10-13T18:18:24.882Z,11.80
2022-10-13T18:20:27.236Z,10.80
2022-10-13T18:22:29.138Z,10.43
2022-10-13T18:24:31.934Z,11.17
2022-10-13T18:26:36.670Z,10.90
2022-10-13T18:28:45.600Z,11.10
2022-10-13T18:30:53.768Z,10.70
2022-10-13T18:32:55.736Z,10.90
2022-10-13T18:34:57.673Z,10.50
2022-10-13T18:36:59.686Z,10.20
2022-10-13T18:39:13.219Z,10.30
2022-10-13T18:41:16.181Z,10.47
2022-10-13T18:43:18.179Z,9.83
2022-10-13T18:45:20.132Z,10.87
2022-10-13T18:47:22.559Z,10.83
2022-10-13T18:49:31.063Z,13.27
2022-10-13T18:51:36.187Z,10.30
2022-10-13T18:53:40.430Z,10.30
2022-10-13T18:55:44.156Z,10.03
2022-10-13T18:57:46.292Z,11.10
2022-10-13T18:59:48.306Z,11.03
2022-10-13T19:01:50.269Z,10.83
2022-10-13T19:03:53.199Z,11.07
2022-10-13T19:05:55.235Z,10.30
2022-10-13T19:07:57.212Z,11.07
2022-10-13T19:09:59.155Z,10.40
2022-10-13T19:12:01.091Z,10.60
2022-10-13T19:14:05.477Z,9.60
2022-10-13T19:16:07.813Z,10.33
2022-10-13T19:18:09.830Z,9.60
2022-10-13T19:20:14.138Z,10.40
2022-10-13T19:22:16.066Z,9.77
2022-10-13T19:24:18.015Z,9.80
2022-10-13T19:26:23.817Z,10.27
2022-10-13T19:28:25.918Z,11.17
2022-10-13T19:30:29.397Z,11.13
2022-10-13T19:32:31.335Z,11.33
2022-10-13T19:34:33.490Z,12.07
2022-10-13T19:36:39.024Z,11.57
2022-10-13T19:38:40.967Z,11.23
2022-10-13T19:40:44.476Z,11.00
2022-10-13T19:42:47.470Z,10.60
2022-10-13T19:44:49.448Z,10.70
2022-10-13T19:46:52.397Z,10.27
2022-10-13T19:48:54.395Z,9.30
2022-10-13T19:50:56.340Z,8.90
2022-10-13T19:52:58.301Z,9.40
2022-10-13T19:55:01.191Z,9.53
2022-10-13T19:57:03.332Z,10.33
2022-10-13T19:59:05.425Z,10.10
2022-10-13T20:01:08.430Z,9.50
2022-10-13T20:03:10.845Z,8.97
2022-10-13T20:05:14.135Z,10.43
2022-10-13T20:07:16.127Z,9.43
2022-10-13T20:09:20.486Z,9.63
2022-10-13T20:11:24.308Z,9.77
2022-10-13T20:13:26.478Z,9.67
2022-10-13T20:15:42.620Z,9.30
2022-10-13T20:17:44.646Z,9.00
2022-10-13T20:19:46.650Z,9.17
2022-10-13T20:21:51.579Z,9.10
2022-10-13T20:23:54.336Z,9.60
2022-10-13T20:25:56.294Z,8.87
2022-10-13T20:28:03.662Z,9.20
2022-10-13T20:30:06.279Z,9.30
2022-10-13T20:32:08.358Z,9.37
2022-10-13T20:34:10.672Z,9.37
2022-10-13T20:36:14.887Z,9.13
2022-10-13T20:38:18.243Z,9.20
2022-10-13T20:40:20.182Z,9.53
2022-10-13T20:42:22.144Z,9.10
2022-10-13T20:44:24.165Z,10.40
2022-10-13T20:46:26.692Z,10.27
2022-10-13T20:48:51.127Z,9.70
2022-10-13T20:50:53.432Z,10.33
2022-10-13T20:52:55.486Z,9.37
2022-10-13T20:54:57.491Z,9.53
2022-10-13T20:57:00.938Z,10.37
2022-10-13T20:59:04.499Z,9.27
2022-10-13T21:01:06.581Z,10.27
2022-10-13T21:03:11.453Z,9.90
2022-10-13T21:05:14.411Z,8.90
2022-10-13T21:07:16.378Z,9.03
2022-10-13T21:09:18.277Z,10.37
2022-10-13T21:11:21.555Z,10.00
2022-10-13T21:13:23.622Z,9.40
2022-10-13T21:15:25.511Z,9.50
2022-10-13T21:17:29.647Z,10.07
2022-10-13T21:19:31.630Z,9.80
2022-10-13T21:21:34.952Z,9.13
2022-10-13T21:23:37.469Z,8.67
2022-10-13T21:25:39.462Z,9.80
2022-10-13T21:27:41.421Z,9.80
2022-10-13T21:29:43.337Z,10.00
2022-10-13T21:31:45.307Z,10.20
2022-10-13T21:33:47.746Z,11.20
2022-10-13T21:35:49.722Z,9.40
2022-10-13T21:37:51.791Z,11.00
2022-10-13T21:39:53.770Z,10.90
2022-10-13T21:41:55.802Z,10.10
2022-10-13T21:43:59.400Z,9.13
2022-10-13T21:46:13.433Z,10.10
2022-10-13T21:48:17.724Z,9.40
2022-10-13T21:50:19.638Z,10.03
2022-10-13T21:52:23.506Z,10.27
2022-10-13T21:54:25.470Z,9.03
2022-10-13T21:56:28.149Z,10.17
2022-10-13T21:58:30.090Z,9.87
2022-10-13T22:00:32.639Z,10.70
2022-10-13T22:02:34.620Z,9.33
2022-10-13T22:04:36.804Z,10.00
2022-10-13T22:06:38.875Z,9.70
2022-10-13T22:08:42.614Z,10.10
2022-10-13T22:10:49.064Z,10.13
2022-10-13T22:12:51.139Z,9.93
2022-10-13T22:14:53.188Z,9.53
2022-10-13T22:16:55.211Z,9.23
2022-10-13T22:18:57.950Z,10.13
2022-10-13T22:21:04.697Z,9.40
2022-10-13T22:23:06.689Z,9.03
2022-10-13T22:25:09.695Z,10.33
2022-10-13T22:27:11.660Z,11.00
2022-10-13T22:29:17.044Z,9.30
2022-10-13T22:31:19.171Z,9.80
2022-10-13T22:33:21.242Z,10.37
2022-10-13T22:35:28.386Z,10.20
2022-10-13T22:37:30.482Z,9.03
2022-10-13T22:39:32.463Z,9.17
2022-10-13T22:41:44.042Z,11.30
2022-10-13T22:43:51.824Z,11.03
2022-10-13T22:45:53.729Z,10.63
2022-10-13T22:47:55.645Z,9.80
2022-10-13T22:49:57.569Z,10.43
2022-10-13T22:51:59.532Z,10.83
2022-10-13T22:54:02.052Z,11.03
2022-10-13T22:56:09.086Z,10.87
2022-10-13T22:58:12.089Z,10.97
2022-10-13T23:00:14.617Z,11.30
2022-10-13T23:02:17.147Z,11.60
2022-10-13T23:04:19.137Z,13.03
2022-10-13T23:06:23.865Z,12.23
2022-10-13T23:08:25.839Z,12.17
2022-10-13T23:10:27.970Z,11.03
2022-10-13T23:12:29.918Z,13.07
2022-10-13T23:14:31.855Z,12.60
2022-10-13T23:16:34.354Z,11.13
2022-10-13T23:18:36.335Z,12.10
2022-10-13T23:20:41.500Z,11.47
2022-10-13T23:22:43.483Z,13.23
2022-10-13T23:24:45.455Z,11.40
2022-10-13T23:26:47.461Z,12.00
2022-10-13T23:28:49.663Z,11.20
2022-10-13T23:30:51.650Z,11.23
2022-10-13T23:32:55.098Z,11.80
2022-10-13T23:34:57.024Z,11.00
2022-10-13T23:37:04.296Z,11.30
2022-10-13T23:39:06.838Z,11.10
2022-10-13T23:41:12.460Z,11.77
2022-10-13T23:43:15.107Z,11.40
2022-10-13T23:45:17.097Z,10.93
2022-10-13T23:47:19.398Z,11.63
2022-10-13T23:49:21.744Z,11.50
2022-10-13T23:51:25.395Z,11.23
2022-10-13T23:53:27.380Z,10.30
2022-10-13T23:55:29.645Z,11.23
2022-10-13T23:57:31.570Z,12.20
2022-10-13T23:59:33.500Z,11.13
